sensor_id;sensor_type;location;lat;lon;timestamp;P1;durP1;ratioP1;P2;durP2;ratioP2
11269;SDS011;5692;48.956;9.200;2023-07-31T00:01:54;199.73;;;190.15;;
11269;SDS011;5692;48.956;9.200;2023-07-31T00:04:20;190.47;;;181.37;;
11269;SDS011;5692;48.956;9.200;2023-07-31T00:06:46;203.27;;;193.55;;
11269;SDS011;5692;48.956;9.200;2023-07-31T00:09:13;199.55;;;190.00;;
11269;SDS011;5692;48.956;9.200;2023-07-31T00:11:39;216.88;;;206.50;;
11269;SDS011;5692;48.956;9.200;2023-07-31T00:14:05;212.60;;;202.40;;
11269;SDS011;5692;48.956;9.200;2023-07-31T00:16:31;222.02;;;211.40;;
11269;SDS011;5692;48.956;9.200;2023-07-31T00:18:58;218.25;;;207.82;;
11269;SDS011;5692;48.956;9.200;2023-07-31T00:21:24;205.40;;;195.57;;
11269;SDS011;5692;48.956;9.200;2023-07-31T00:23:50;208.10;;;198.13;;
11269;SDS011;5692;48.956;9.200;2023-07-31T00:26:16;198.65;;;189.15;;
11269;SDS011;5692;48.956;9.200;2023-07-31T00:28:42;212.20;;;202.02;;
11269;SDS011;5692;48.956;9.200;2023-07-31T00:31:08;206.23;;;196.38;;
11269;SDS011;5692;48.956;9.200;2023-07-31T00:33:36;202.50;;;192.82;;
11269;SDS011;5692;48.956;9.200;2023-07-31T00:36:02;209.27;;;199.27;;
11269;SDS011;5692;48.956;9.200;2023-07-31T00:38:28;225.60;;;214.80;;
11269;SDS011;5692;48.956;9.200;2023-07-31T00:40:54;219.70;;;209.18;;
11269;SDS011;5692;48.956;9.200;2023-07-31T00:43:21;209.57;;;199.52;;
11269;SDS011;5692;48.956;9.200;2023-07-31T00:45:47;224.60;;;213.85;;
11269;SDS011;5692;48.956;9.200;2023-07-31T00:48:14;218.80;;;208.32;;
11269;SDS011;5692;48.956;9.200;2023-07-31T00:50:40;213.32;;;203.13;;
11269;SDS011;5692;48.956;9.200;2023-07-31T00:53:06;216.70;;;206.32;;
11269;SDS011;5692;48.956;9.200;2023-07-31T00:55:33;215.32;;;205.02;;
11269;SDS011;5692;48.956;9.200;2023-07-31T00:57:59;217.38;;;206.98;;
11269;SDS011;5692;48.956;9.200;2023-07-31T01:00:25;217.85;;;207.45;;
11269;SDS011;5692;48.956;9.200;2023-07-31T01:02:54;224.40;;;213.65;;
11269;SDS011;5692;48.956;9.200;2023-07-31T01:05:29;206.15;;;196.25;;
11269;SDS011;5692;48.956;9.200;2023-07-31T01:08:02;208.02;;;198.07;;
11269;SDS011;5692;48.956;9.200;2023-07-31T01:10:34;210.48;;;200.40;;
11269;SDS011;5692;48.956;9.200;2023-07-31T01:13:02;211.80;;;201.70;;
11269;SDS011;5692;48.956;9.200;2023-07-31T01:15:29;216.43;;;206.07;;
11269;SDS011;5692;48.956;9.200;2023-07-31T01:17:55;210.52;;;200.45;;
11269;SDS011;5692;48.956;9.200;2023-07-31T01:20:21;206.60;;;196.73;;
11269;SDS011;5692;48.956;9.200;2023-07-31T01:25:32;216.10;;;205.77;;
11269;SDS011;5692;48.956;9.200;2023-07-31T01:28:04;208.68;;;198.68;;
11269;SDS011;5692;48.956;9.200;2023-07-31T01:30:34;197.38;;;187.93;;
11269;SDS011;5692;48.956;9.200;2023-07-31T01:33:06;200.70;;;191.10;;
11269;SDS011;5692;48.956;9.200;2023-07-31T01:35:34;194.70;;;185.40;;
11269;SDS011;5692;48.956;9.200;2023-07-31T01:38:01;194.68;;;185.38;;
11269;SDS011;5692;48.956;9.200;2023-07-31T01:40:27;200.98;;;191.35;;
11269;SDS011;5692;48.956;9.200;2023-07-31T01:42:55;216.68;;;206.27;;
11269;SDS011;5692;48.956;9.200;2023-07-31T01:45:22;216.45;;;206.10;;
11269;SDS011;5692;48.956;9.200;2023-07-31T01:47:48;199.50;;;189.95;;
11269;SDS011;5692;48.956;9.200;2023-07-31T01:50:14;198.85;;;189.32;;
11269;SDS011;5692;48.956;9.200;2023-07-31T01:52:40;215.63;;;205.30;;
11269;SDS011;5692;48.956;9.200;2023-07-31T01:55:06;209.93;;;199.88;;
11269;SDS011;5692;48.956;9.200;2023-07-31T01:57:33;209.88;;;199.88;;
11269;SDS011;5692;48.956;9.200;2023-07-31T01:59:59;204.40;;;194.60;;
11269;SDS011;5692;48.956;9.200;2023-07-31T02:02:25;199.82;;;190.27;;
11269;SDS011;5692;48.956;9.200;2023-07-31T02:04:52;195.93;;;186.55;;
11269;SDS011;5692;48.956;9.200;2023-07-31T02:07:18;203.55;;;193.82;;
11269;SDS011;5692;48.956;9.200;2023-07-31T02:09:44;210.38;;;200.27;;
11269;SDS011;5692;48.956;9.200;2023-07-31T02:12:12;204.90;;;195.10;;
11269;SDS011;5692;48.956;9.200;2023-07-31T02:14:39;199.30;;;189.75;;
11269;SDS011;5692;48.956;9.200;2023-07-31T02:17:08;195.07;;;185.75;;
11269;SDS011;5692;48.956;9.200;2023-07-31T02:19:35;206.52;;;196.63;;
11269;SDS011;5692;48.956;9.200;2023-07-31T02:22:05;190.60;;;181.50;;
11269;SDS011;5692;48.956;9.200;2023-07-31T02:24:31;196.80;;;187.40;;
11269;SDS011;5692;48.956;9.200;2023-07-31T02:26:57;198.07;;;188.57;;
11269;SDS011;5692;48.956;9.200;2023-07-31T02:29:23;216.43;;;206.05;;
11269;SDS011;5692;48.956;9.200;2023-07-31T02:31:49;191.02;;;181.88;;
11269;SDS011;5692;48.956;9.200;2023-07-31T02:34:15;204.38;;;194.57;;
11269;SDS011;5692;48.956;9.200;2023-07-31T02:36:41;214.67;;;204.37;;
11269;SDS011;5692;48.956;9.200;2023-07-31T02:39:08;216.43;;;206.07;;
11269;SDS011;5692;48.956;9.200;2023-07-31T02:41:34;210.63;;;200.55;;
11269;SDS011;5692;48.956;9.200;2023-07-31T02:44:00;203.30;;;193.60;;
11269;SDS011;5692;48.956;9.200;2023-07-31T02:46:27;209.40;;;199.38;;
11269;SDS011;5692;48.956;9.200;2023-07-31T02:48:53;210.85;;;200.75;;
11269;SDS011;5692;48.956;9.200;2023-07-31T02:51:19;200.07;;;190.50;;
11269;SDS011;5692;48.956;9.200;2023-07-31T02:53:47;214.38;;;204.10;;
11269;SDS011;5692;48.956;9.200;2023-07-31T02:56:14;223.25;;;212.57;;
11269;SDS011;5692;48.956;9.200;2023-07-31T02:58:40;220.40;;;209.85;;
11269;SDS011;5692;48.956;9.200;2023-07-31T03:01:06;198.93;;;189.43;;
11269;SDS011;5692;48.956;9.200;2023-07-31T03:03:32;200.88;;;191.25;;
11269;SDS011;5692;48.956;9.200;2023-07-31T03:05:58;202.50;;;192.82;;
11269;SDS011;5692;48.956;9.200;2023-07-31T03:08:24;208.65;;;198.65;;
11269;SDS011;5692;48.956;9.200;2023-07-31T03:10:50;208.27;;;198.27;;
11269;SDS011;5692;48.956;9.200;2023-07-31T03:13:16;195.88;;;186.50;;
11269;SDS011;5692;48.956;9.200;2023-07-31T03:15:43;201.15;;;191.52;;
11269;SDS011;5692;48.956;9.200;2023-07-31T03:18:12;214.27;;;204.02;;
11269;SDS011;5692;48.956;9.200;2023-07-31T03:20:41;199.00;;;189.48;;
11269;SDS011;5692;48.956;9.200;2023-07-31T03:23:07;194.05;;;184.75;;
11269;SDS011;5692;48.956;9.200;2023-07-31T03:25:34;205.80;;;195.95;;
11269;SDS011;5692;48.956;9.200;2023-07-31T03:28:09;211.18;;;201.07;;
11269;SDS011;5692;48.956;9.200;2023-07-31T03:30:38;192.80;;;183.55;;
11269;SDS011;5692;48.956;9.200;2023-07-31T03:33:04;205.73;;;195.88;;
11269;SDS011;5692;48.956;9.200;2023-07-31T03:35:31;203.98;;;194.20;;
11269;SDS011;5692;48.956;9.200;2023-07-31T03:37:58;204.07;;;194.27;;
11269;SDS011;5692;48.956;9.200;2023-07-31T03:40:24;210.73;;;200.65;;
11269;SDS011;5692;48.956;9.200;2023-07-31T03:42:51;218.15;;;207.70;;
11269;SDS011;5692;48.956;9.200;2023-07-31T03:45:17;219.68;;;209.18;;
11269;SDS011;5692;48.956;9.200;2023-07-31T03:47:43;202.45;;;192.75;;
11269;SDS011;5692;48.956;9.200;2023-07-31T03:50:10;221.63;;;211.02;;
11269;SDS011;5692;48.956;9.200;2023-07-31T03:52:37;197.68;;;188.18;;
11269;SDS011;5692;48.956;9.200;2023-07-31T03:55:06;211.60;;;201.48;;
11269;SDS011;5692;48.956;9.200;2023-07-31T03:57:32;193.20;;;183.95;;
11269;SDS011;5692;48.956;9.200;2023-07-31T03:59:58;209.43;;;199.40;;
11269;SDS011;5692;48.956;9.200;2023-07-31T04:02:24;199.88;;;190.30;;
11269;SDS011;5692;48.956;9.200;2023-07-31T04:04:51;202.98;;;193.27;;
11269;SDS011;5692;48.956;9.200;2023-07-31T04:07:17;207.63;;;197.70;;
11269;SDS011;5692;48.956;9.200;2023-07-31T04:09:43;205.40;;;195.60;;
11269;SDS011;5692;48.956;9.200;2023-07-31T04:12:13;197.27;;;187.82;;
11269;SDS011;5692;48.956;9.200;2023-07-31T04:14:39;196.00;;;186.60;;
11269;SDS011;5692;48.956;9.200;2023-07-31T04:17:06;184.18;;;175.38;;
11269;SDS011;5692;48.956;9.200;2023-07-31T04:19:32;203.40;;;193.67;;
11269;SDS011;5692;48.956;9.200;2023-07-31T04:21:58;209.88;;;199.82;;
11269;SDS011;5692;48.956;9.200;2023-07-31T04:24:24;199.15;;;189.63;;
11269;SDS011;5692;48.956;9.200;2023-07-31T04:26:51;213.05;;;202.85;;
11269;SDS011;5692;48.956;9.200;2023-07-31T04:29:25;198.40;;;188.90;;
11269;SDS011;5692;48.956;9.200;2023-07-31T04:31:52;196.63;;;187.23;;
11269;SDS011;5692;48.956;9.200;2023-07-31T04:34:20;198.23;;;188.73;;
11269;SDS011;5692;48.956;9.200;2023-07-31T04:36:47;212.13;;;201.98;;
11269;SDS011;5692;48.956;9.200;2023-07-31T04:39:13;204.88;;;195.07;;
11269;SDS011;5692;48.956;9.200;2023-07-31T04:41:41;212.40;;;202.20;;
11269;SDS011;5692;48.956;9.200;2023-07-31T04:44:07;208.20;;;198.23;;
11269;SDS011;5692;48.956;9.200;2023-07-31T04:46:36;210.55;;;200.48;;
11269;SDS011;5692;48.956;9.200;2023-07-31T04:49:02;196.00;;;186.60;;
11269;SDS011;5692;48.956;9.200;2023-07-31T04:51:28;208.38;;;198.38;;
11269;SDS011;5692;48.956;9.200;2023-07-31T04:53:54;202.85;;;193.15;;
11269;SDS011;5692;48.956;9.200;2023-07-31T04:56:23;207.00;;;197.10;;
11269;SDS011;5692;48.956;9.200;2023-07-31T04:58:49;206.55;;;196.65;;
11269;SDS011;5692;48.956;9.200;2023-07-31T05:01:15;193.07;;;183.85;;
11269;SDS011;5692;48.956;9.200;2023-07-31T05:03:41;188.80;;;179.77;;
11269;SDS011;5692;48.956;9.200;2023-07-31T05:06:07;200.05;;;190.45;;
11269;SDS011;5692;48.956;9.200;2023-07-31T05:08:41;196.25;;;186.85;;
11269;SDS011;5692;48.956;9.200;2023-07-31T05:11:07;205.02;;;195.20;;
11269;SDS011;5692;48.956;9.200;2023-07-31T05:13:35;201.65;;;192.00;;
11269;SDS011;5692;48.956;9.200;2023-07-31T05:16:01;203.10;;;193.38;;
11269;SDS011;5692;48.956;9.200;2023-07-31T05:18:28;211.65;;;201.52;;
11269;SDS011;5692;48.956;9.200;2023-07-31T05:20:54;196.73;;;187.32;;
11269;SDS011;5692;48.956;9.200;2023-07-31T05:23:20;203.45;;;193.70;;
11269;SDS011;5692;48.956;9.200;2023-07-31T05:25:46;190.40;;;181.27;;
11269;SDS011;5692;48.956;9.200;2023-07-31T05:28:12;188.43;;;179.40;;
11269;SDS011;5692;48.956;9.200;2023-07-31T05:30:38;196.15;;;186.75;;
11269;SDS011;5692;48.956;9.200;2023-07-31T05:33:04;197.25;;;187.85;;
11269;SDS011;5692;48.956;9.200;2023-07-31T05:35:30;194.40;;;185.10;;
11269;SDS011;5692;48.956;9.200;2023-07-31T05:37:59;219.77;;;209.25;;
11269;SDS011;5692;48.956;9.200;2023-07-31T05:40:25;209.52;;;199.50;;
11269;SDS011;5692;48.956;9.200;2023-07-31T05:42:51;218.05;;;207.63;;
11269;SDS011;5692;48.956;9.200;2023-07-31T05:45:17;205.55;;;195.70;;
11269;SDS011;5692;48.956;9.200;2023-07-31T05:47:43;210.85;;;200.75;;
11269;SDS011;5692;48.956;9.200;2023-07-31T05:50:09;201.48;;;191.85;;
11269;SDS011;5692;48.956;9.200;2023-07-31T05:52:35;169.88;;;161.75;;
11269;SDS011;5692;48.956;9.200;2023-07-31T05:55:01;183.48;;;174.70;;
11269;SDS011;5692;48.956;9.200;2023-07-31T05:57:28;199.75;;;190.15;;
11269;SDS011;5692;48.956;9.200;2023-07-31T05:59:54;183.20;;;174.43;;
11269;SDS011;5692;48.956;9.200;2023-07-31T06:02:20;188.38;;;179.38;;
11269;SDS011;5692;48.956;9.200;2023-07-31T06:04:46;209.52;;;199.50;;
11269;SDS011;5692;48.956;9.200;2023-07-31T06:07:12;221.55;;;210.95;;
11269;SDS011;5692;48.956;9.200;2023-07-31T06:09:38;207.60;;;197.65;;
11269;SDS011;5692;48.956;9.200;2023-07-31T06:12:04;213.07;;;202.88;;
11269;SDS011;5692;48.956;9.200;2023-07-31T06:14:32;212.52;;;202.35;;
11269;SDS011;5692;48.956;9.200;2023-07-31T06:16:58;202.93;;;193.23;;
11269;SDS011;5692;48.956;9.200;2023-07-31T06:19:25;214.55;;;204.25;;
11269;SDS011;5692;48.956;9.200;2023-07-31T06:21:51;217.23;;;206.85;;
11269;SDS011;5692;48.956;9.200;2023-07-31T06:24:17;208.15;;;198.18;;
11269;SDS011;5692;48.956;9.200;2023-07-31T06:26:45;204.40;;;194.60;;
11269;SDS011;5692;48.956;9.200;2023-07-31T06:29:11;213.17;;;202.93;;
11269;SDS011;5692;48.956;9.200;2023-07-31T06:31:37;220.48;;;209.93;;
11269;SDS011;5692;48.956;9.200;2023-07-31T06:34:03;240.13;;;228.65;;
11269;SDS011;5692;48.956;9.200;2023-07-31T06:36:29;224.20;;;213.48;;
11269;SDS011;5692;48.956;9.200;2023-07-31T06:38:55;232.73;;;221.60;;
11269;SDS011;5692;48.956;9.200;2023-07-31T06:41:21;224.15;;;213.43;;
11269;SDS011;5692;48.956;9.200;2023-07-31T06:43:48;234.13;;;222.93;;
11269;SDS011;5692;48.956;9.200;2023-07-31T06:46:14;224.70;;;213.95;;
11269;SDS011;5692;48.956;9.200;2023-07-31T06:48:40;244.57;;;232.90;;
11269;SDS011;5692;48.956;9.200;2023-07-31T06:51:06;241.80;;;230.23;;
11269;SDS011;5692;48.956;9.200;2023-07-31T06:53:32;224.35;;;213.60;;
11269;SDS011;5692;48.956;9.200;2023-07-31T06:55:58;255.33;;;243.13;;
11269;SDS011;5692;48.956;9.200;2023-07-31T06:58:24;252.07;;;240.02;;
11269;SDS011;5692;48.956;9.200;2023-07-31T07:00:50;263.33;;;250.75;;
11269;SDS011;5692;48.956;9.200;2023-07-31T07:03:18;250.23;;;238.27;;
11269;SDS011;5692;48.956;9.200;2023-07-31T07:05:44;245.07;;;233.35;;
11269;SDS011;5692;48.956;9.200;2023-07-31T07:08:10;267.20;;;254.40;;
11269;SDS011;5692;48.956;9.200;2023-07-31T07:10:36;279.70;;;266.35;;
11269;SDS011;5692;48.956;9.200;2023-07-31T07:13:02;276.98;;;263.75;;
11269;SDS011;5692;48.956;9.200;2023-07-31T07:15:28;286.92;;;273.23;;
11269;SDS011;5692;48.956;9.200;2023-07-31T07:17:54;270.02;;;257.13;;
11269;SDS011;5692;48.956;9.200;2023-07-31T07:20:21;271.65;;;258.67;;
11269;SDS011;5692;48.956;9.200;2023-07-31T07:22:47;272.05;;;259.05;;
11269;SDS011;5692;48.956;9.200;2023-07-31T07:25:13;265.80;;;253.10;;
11269;SDS011;5692;48.956;9.200;2023-07-31T07:27:39;270.33;;;257.43;;
11269;SDS011;5692;48.956;9.200;2023-07-31T07:30:05;265.73;;;253.02;;
11269;SDS011;5692;48.956;9.200;2023-07-31T07:32:31;250.63;;;238.63;;
11269;SDS011;5692;48.956;9.200;2023-07-31T07:34:57;270.38;;;257.45;;
11269;SDS011;5692;48.956;9.200;2023-07-31T07:37:23;262.55;;;250.00;;
11269;SDS011;5692;48.956;9.200;2023-07-31T07:39:49;263.83;;;251.20;;
11269;SDS011;5692;48.956;9.200;2023-07-31T07:42:15;268.43;;;255.60;;
11269;SDS011;5692;48.956;9.200;2023-07-31T07:44:41;250.35;;;238.35;;
11269;SDS011;5692;48.956;9.200;2023-07-31T07:47:07;262.27;;;249.77;;
11269;SDS011;5692;48.956;9.200;2023-07-31T07:49:34;259.47;;;247.07;;
11269;SDS011;5692;48.956;9.200;2023-07-31T07:52:00;240.93;;;229.40;;
11269;SDS011;5692;48.956;9.200;2023-07-31T07:54:26;280.17;;;266.80;;
11269;SDS011;5692;48.956;9.200;2023-07-31T07:56:52;239.73;;;228.25;;
11269;SDS011;5692;48.956;9.200;2023-07-31T07:59:18;262.87;;;250.27;;
11269;SDS011;5692;48.956;9.200;2023-07-31T08:01:45;243.93;;;232.25;;
11269;SDS011;5692;48.956;9.200;2023-07-31T08:04:11;247.67;;;235.83;;
11269;SDS011;5692;48.956;9.200;2023-07-31T08:06:37;246.27;;;234.48;;
11269;SDS011;5692;48.956;9.200;2023-07-31T08:09:03;250.45;;;238.48;;
11269;SDS011;5692;48.956;9.200;2023-07-31T08:11:31;255.38;;;243.15;;
11269;SDS011;5692;48.956;9.200;2023-07-31T08:13:57;253.80;;;241.65;;
11269;SDS011;5692;48.956;9.200;2023-07-31T08:16:23;265.05;;;252.40;;
11269;SDS011;5692;48.956;9.200;2023-07-31T08:18:49;268.70;;;255.85;;
11269;SDS011;5692;48.956;9.200;2023-07-31T08:21:15;290.60;;;276.70;;
11269;SDS011;5692;48.956;9.200;2023-07-31T08:23:41;274.80;;;261.70;;
11269;SDS011;5692;48.956;9.200;2023-07-31T08:26:07;296.80;;;282.60;;
11269;SDS011;5692;48.956;9.200;2023-07-31T08:28:33;294.33;;;280.27;;
11269;SDS011;5692;48.956;9.200;2023-07-31T08:31:01;265.90;;;253.20;;
11269;SDS011;5692;48.956;9.200;2023-07-31T08:33:27;283.20;;;269.65;;
11269;SDS011;5692;48.956;9.200;2023-07-31T08:35:53;287.25;;;273.52;;
11269;SDS011;5692;48.956;9.200;2023-07-31T08:38:20;272.25;;;259.23;;
11269;SDS011;5692;48.956;9.200;2023-07-31T08:40:46;285.52;;;271.88;;
11269;SDS011;5692;48.956;9.200;2023-07-31T08:43:12;292.13;;;278.20;;
11269;SDS011;5692;48.956;9.200;2023-07-31T08:45:38;287.88;;;274.13;;
11269;SDS011;5692;48.956;9.200;2023-07-31T08:48:09;289.75;;;275.90;;
11269;SDS011;5692;48.956;9.200;2023-07-31T08:50:35;267.20;;;254.43;;
11269;SDS011;5692;48.956;9.200;2023-07-31T08:53:02;231.40;;;220.30;;
11269;SDS011;5692;48.956;9.200;2023-07-31T08:55:28;242.13;;;230.57;;
11269;SDS011;5692;48.956;9.200;2023-07-31T08:57:54;272.15;;;259.15;;
11269;SDS011;5692;48.956;9.200;2023-07-31T09:00:21;269.30;;;256.45;;
11269;SDS011;5692;48.956;9.200;2023-07-31T09:03:02;256.55;;;244.27;;
11269;SDS011;5692;48.956;9.200;2023-07-31T09:05:29;287.35;;;273.65;;
11269;SDS011;5692;48.956;9.200;2023-07-31T09:07:55;298.70;;;284.42;;
11269;SDS011;5692;48.956;9.200;2023-07-31T09:10:23;282.50;;;269.00;;
11269;SDS011;5692;48.956;9.200;2023-07-31T09:12:50;298.08;;;283.85;;
11269;SDS011;5692;48.956;9.200;2023-07-31T09:15:16;284.38;;;270.77;;
11269;SDS011;5692;48.956;9.200;2023-07-31T09:17:42;283.33;;;269.80;;
11269;SDS011;5692;48.956;9.200;2023-07-31T09:20:19;277.60;;;264.30;;
11269;SDS011;5692;48.956;9.200;2023-07-31T09:22:45;274.35;;;261.25;;
11269;SDS011;5692;48.956;9.200;2023-07-31T09:25:18;270.17;;;257.27;;
11269;SDS011;5692;48.956;9.200;2023-07-31T09:27:54;282.90;;;269.38;;
11269;SDS011;5692;48.956;9.200;2023-07-31T09:30:21;274.52;;;261.40;;
11269;SDS011;5692;48.956;9.200;2023-07-31T09:32:48;291.50;;;277.58;;
11269;SDS011;5692;48.956;9.200;2023-07-31T09:35:47;292.10;;;278.15;;
11269;SDS011;5692;48.956;9.200;2023-07-31T09:40:33;275.40;;;262.23;;
11269;SDS011;5692;48.956;9.200;2023-07-31T09:43:00;258.40;;;246.02;;
11269;SDS011;5692;48.956;9.200;2023-07-31T09:45:26;264.35;;;251.73;;
11269;SDS011;5692;48.956;9.200;2023-07-31T09:47:53;282.02;;;268.52;;
11269;SDS011;5692;48.956;9.200;2023-07-31T09:50:22;257.02;;;244.73;;
11269;SDS011;5692;48.956;9.200;2023-07-31T09:52:49;248.93;;;237.02;;
11269;SDS011;5692;48.956;9.200;2023-07-31T09:55:15;271.40;;;258.40;;
11269;SDS011;5692;48.956;9.200;2023-07-31T09:57:43;297.23;;;283.02;;
11269;SDS011;5692;48.956;9.200;2023-07-31T10:00:10;291.40;;;277.50;;
11269;SDS011;5692;48.956;9.200;2023-07-31T10:02:37;266.10;;;253.38;;
11269;SDS011;5692;48.956;9.200;2023-07-31T10:05:06;283.25;;;269.70;;
11269;SDS011;5692;48.956;9.200;2023-07-31T10:07:38;258.73;;;246.35;;
11269;SDS011;5692;48.956;9.200;2023-07-31T10:10:06;273.13;;;260.05;;
11269;SDS011;5692;48.956;9.200;2023-07-31T10:12:34;279.52;;;266.15;;
11269;SDS011;5692;48.956;9.200;2023-07-31T10:15:00;288.73;;;274.92;;
11269;SDS011;5692;48.956;9.200;2023-07-31T10:17:26;276.50;;;263.30;;
11269;SDS011;5692;48.956;9.200;2023-07-31T10:19:53;274.48;;;261.35;;
11269;SDS011;5692;48.956;9.200;2023-07-31T10:22:19;288.27;;;274.50;;
11269;SDS011;5692;48.956;9.200;2023-07-31T10:24:45;292.20;;;278.23;;
11269;SDS011;5692;48.956;9.200;2023-07-31T10:27:12;306.00;;;291.40;;
11269;SDS011;5692;48.956;9.200;2023-07-31T10:29:38;299.40;;;285.10;;
11269;SDS011;5692;48.956;9.200;2023-07-31T10:32:06;274.03;;;260.93;;
11269;SDS011;5692;48.956;9.200;2023-07-31T10:34:35;289.00;;;275.17;;
11269;SDS011;5692;48.956;9.200;2023-07-31T10:39:54;304.03;;;289.50;;
11269;SDS011;5692;48.956;9.200;2023-07-31T10:42:21;290.65;;;276.75;;
11269;SDS011;5692;48.956;9.200;2023-07-31T10:44:55;289.55;;;275.73;;
11269;SDS011;5692;48.956;9.200;2023-07-31T10:47:22;282.00;;;268.50;;
11269;SDS011;5692;48.956;9.200;2023-07-31T10:49:48;287.33;;;273.60;;
11269;SDS011;5692;48.956;9.200;2023-07-31T10:52:15;297.20;;;283.00;;
11269;SDS011;5692;48.956;9.200;2023-07-31T10:54:48;283.15;;;269.60;;
11269;SDS011;5692;48.956;9.200;2023-07-31T10:57:21;293.25;;;279.25;;
11269;SDS011;5692;48.956;9.200;2023-07-31T10:59:48;309.00;;;294.20;;
11269;SDS011;5692;48.956;9.200;2023-07-31T11:02:26;290.23;;;276.33;;
11269;SDS011;5692;48.956;9.200;2023-07-31T11:05:05;280.25;;;266.85;;
11269;SDS011;5692;48.956;9.200;2023-07-31T11:07:47;251.90;;;239.88;;
11269;SDS011;5692;48.956;9.200;2023-07-31T11:10:17;288.60;;;274.80;;
11269;SDS011;5692;48.956;9.200;2023-07-31T11:12:44;272.17;;;259.15;;
11269;SDS011;5692;48.956;9.200;2023-07-31T11:15:10;262.92;;;250.32;;
11269;SDS011;5692;48.956;9.200;2023-07-31T11:17:39;270.65;;;257.73;;
11269;SDS011;5692;48.956;9.200;2023-07-31T11:20:06;258.53;;;246.17;;
11269;SDS011;5692;48.956;9.200;2023-07-31T11:22:34;282.27;;;268.77;;
11269;SDS011;5692;48.956;9.200;2023-07-31T11:25:00;255.63;;;243.43;;
11269;SDS011;5692;48.956;9.200;2023-07-31T11:27:27;265.40;;;252.70;;
11269;SDS011;5692;48.956;9.200;2023-07-31T11:29:59;270.08;;;257.17;;
11269;SDS011;5692;48.956;9.200;2023-07-31T11:32:26;276.10;;;262.90;;
11269;SDS011;5692;48.956;9.200;2023-07-31T11:34:53;262.50;;;249.93;;
11269;SDS011;5692;48.956;9.200;2023-07-31T11:37:19;269.97;;;257.07;;
11269;SDS011;5692;48.956;9.200;2023-07-31T11:40:00;252.30;;;240.23;;
11269;SDS011;5692;48.956;9.200;2023-07-31T11:42:27;282.67;;;269.17;;
11269;SDS011;5692;48.956;9.200;2023-07-31T11:44:53;293.85;;;279.83;;
11269;SDS011;5692;48.956;9.200;2023-07-31T11:47:19;303.40;;;288.90;;
11269;SDS011;5692;48.956;9.200;2023-07-31T11:49:45;294.48;;;280.40;;
11269;SDS011;5692;48.956;9.200;2023-07-31T11:52:11;267.70;;;254.90;;
11269;SDS011;5692;48.956;9.200;2023-07-31T11:54:38;293.55;;;279.52;;
11269;SDS011;5692;48.956;9.200;2023-07-31T11:57:04;299.67;;;285.35;;
11269;SDS011;5692;48.956;9.200;2023-07-31T11:59:30;284.63;;;271.02;;
11269;SDS011;5692;48.956;9.200;2023-07-31T12:01:59;277.93;;;264.63;;
11269;SDS011;5692;48.956;9.200;2023-07-31T12:04:25;270.70;;;257.77;;
11269;SDS011;5692;48.956;9.200;2023-07-31T12:06:52;282.80;;;269.30;;
11269;SDS011;5692;48.956;9.200;2023-07-31T12:09:18;268.07;;;255.27;;
11269;SDS011;5692;48.956;9.200;2023-07-31T12:11:45;280.07;;;266.67;;
11269;SDS011;5692;48.956;9.200;2023-07-31T12:14:22;269.57;;;256.67;;
11269;SDS011;5692;48.956;9.200;2023-07-31T12:16:52;277.20;;;263.97;;
11269;SDS011;5692;48.956;9.200;2023-07-31T12:19:19;284.83;;;271.20;;
11269;SDS011;5692;48.956;9.200;2023-07-31T12:21:45;282.63;;;269.13;;
11269;SDS011;5692;48.956;9.200;2023-07-31T12:24:11;288.40;;;274.63;;
11269;SDS011;5692;48.956;9.200;2023-07-31T12:26:37;268.30;;;255.50;;
11269;SDS011;5692;48.956;9.200;2023-07-31T12:29:04;285.87;;;272.20;;
11269;SDS011;5692;48.956;9.200;2023-07-31T12:31:33;286.43;;;272.73;;
11269;SDS011;5692;48.956;9.200;2023-07-31T12:33:59;275.00;;;261.83;;
11269;SDS011;5692;48.956;9.200;2023-07-31T12:36:27;279.20;;;265.87;;
11269;SDS011;5692;48.956;9.200;2023-07-31T12:38:55;269.50;;;256.60;;
11269;SDS011;5692;48.956;9.200;2023-07-31T12:41:23;276.60;;;263.37;;
11269;SDS011;5692;48.956;9.200;2023-07-31T12:43:49;277.60;;;264.33;;
11269;SDS011;5692;48.956;9.200;2023-07-31T12:46:15;263.90;;;251.30;;
11269;SDS011;5692;48.956;9.200;2023-07-31T12:48:42;259.47;;;247.07;;
11269;SDS011;5692;48.956;9.200;2023-07-31T12:51:08;272.93;;;259.90;;
11269;SDS011;5692;48.956;9.200;2023-07-31T12:53:34;264.53;;;251.87;;
11269;SDS011;5692;48.956;9.200;2023-07-31T12:56:00;277.07;;;263.83;;
11269;SDS011;5692;48.956;9.200;2023-07-31T12:58:27;278.60;;;265.30;;
11269;SDS011;5692;48.956;9.200;2023-07-31T13:00:53;266.60;;;253.87;;
11269;SDS011;5692;48.956;9.200;2023-07-31T13:03:19;268.10;;;255.30;;
11269;SDS011;5692;48.956;9.200;2023-07-31T13:05:45;269.77;;;256.87;;
11269;SDS011;5692;48.956;9.200;2023-07-31T13:08:13;265.30;;;252.63;;
11269;SDS011;5692;48.956;9.200;2023-07-31T13:10:41;269.73;;;256.87;;
11269;SDS011;5692;48.956;9.200;2023-07-31T13:13:07;260.47;;;248.03;;
11269;SDS011;5692;48.956;9.200;2023-07-31T13:15:33;263.83;;;251.23;;
11269;SDS011;5692;48.956;9.200;2023-07-31T13:17:59;266.40;;;253.70;;
11269;SDS011;5692;48.956;9.200;2023-07-31T13:20:25;287.08;;;273.38;;
11269;SDS011;5692;48.956;9.200;2023-07-31T13:22:51;260.20;;;247.80;;
11269;SDS011;5692;48.956;9.200;2023-07-31T13:25:17;267.00;;;254.23;;
11269;SDS011;5692;48.956;9.200;2023-07-31T13:27:43;261.33;;;248.82;;
11269;SDS011;5692;48.956;9.200;2023-07-31T13:30:09;269.17;;;256.30;;
11269;SDS011;5692;48.956;9.200;2023-07-31T13:32:35;267.73;;;254.93;;
11269;SDS011;5692;48.956;9.200;2023-07-31T13:35:07;264.85;;;252.20;;
11269;SDS011;5692;48.956;9.200;2023-07-31T13:37:33;271.77;;;258.77;;
11269;SDS011;5692;48.956;9.200;2023-07-31T13:40:00;266.70;;;253.93;;
11269;SDS011;5692;48.956;9.200;2023-07-31T13:42:26;275.10;;;261.95;;
11269;SDS011;5692;48.956;9.200;2023-07-31T13:44:53;264.42;;;251.80;;
11269;SDS011;5692;48.956;9.200;2023-07-31T13:47:21;280.23;;;266.83;;
11269;SDS011;5692;48.956;9.200;2023-07-31T13:49:47;279.77;;;266.42;;
11269;SDS011;5692;48.956;9.200;2023-07-31T13:52:14;288.75;;;274.95;;
11269;SDS011;5692;48.956;9.200;2023-07-31T13:54:48;272.75;;;259.73;;
11269;SDS011;5692;48.956;9.200;2023-07-31T13:57:14;285.25;;;271.63;;
11269;SDS011;5692;48.956;9.200;2023-07-31T13:59:40;283.80;;;270.20;;
11269;SDS011;5692;48.956;9.200;2023-07-31T14:02:06;284.90;;;271.30;;
11269;SDS011;5692;48.956;9.200;2023-07-31T14:04:32;300.65;;;286.27;;
11269;SDS011;5692;48.956;9.200;2023-07-31T14:06:58;280.23;;;266.83;;
11269;SDS011;5692;48.956;9.200;2023-07-31T14:09:24;281.83;;;268.33;;
11269;SDS011;5692;48.956;9.200;2023-07-31T14:11:50;302.25;;;287.80;;
11269;SDS011;5692;48.956;9.200;2023-07-31T14:14:17;277.90;;;264.60;;
11269;SDS011;5692;48.956;9.200;2023-07-31T14:16:45;286.23;;;272.58;;